Time;durP1;ratioP1;P1;durP2;ratioP2;P2;SDS_P1;SDS_P2;PMS_P1;PMS_P2;Temp;Humidity;BMP_temperature;BMP_pressure;BME280_temperature;BME280_humidity;BME280_pressure;Samples;Min_cycle;Max_cycle;Signal;HPM_P1;HPM_P2
2022/01/09 00:06:29;;;;;;;1999.90;999.90;;;;;;;1.64;68.12;99484.09;15725656;28;20047;-64
2022/01/09 00:14:03;;;;;;;1999.90;999.90;;;;;;;1.75;68.32;99479.22;15719183;28;20032;-64
2022/01/09 00:21:37;;;;;;;1999.90;999.90;;;;;;;1.49;68.81;99453.34;15729020;28;20049;-64
2022/01/09 00:29:11;;;;;;;1999.90;999.90;;;;;;;1.53;68.99;99437.84;15716601;28;20498;-63
2022/01/09 00:36:43;;;;;;;1999.90;999.90;;;;;;;1.38;69.18;99422.47;15671382;28;20406;-63
2022/01/09 00:44:17;;;;;;;1999.90;999.90;;;;;;;1.47;68.57;99425.34;15716473;28;20544;-63
2022/01/09 00:51:50;;;;;;;1999.90;999.90;;;;;;;1.50;67.99;99420.03;15689094;28;20506;-64
2022/01/09 00:59:24;;;;;;;1999.90;999.90;;;;;;;1.46;68.24;99410.78;15712345;28;20044;-64
2022/01/09 01:06:57;;;;;;;1999.90;999.90;;;;;;;1.70;67.09;99386.63;15709401;28;20041;-63
2022/01/09 01:14:32;;;;;;;1999.90;999.90;;;;;;;1.39;68.29;99394.69;15716856;28;20091;-64
2022/01/09 01:22:05;;;;;;;1999.90;999.90;;;;;;;1.28;68.63;99379.50;15714901;28;20295;-64
2022/01/09 01:29:40;;;;;;;1999.90;999.90;;;;;;;1.29;68.70;99367.38;15715715;28;20135;-64
2022/01/09 01:37:15;;;;;;;1999.90;999.90;;;;;;;1.48;68.41;99355.50;15721881;28;20083;-65
2022/01/09 01:44:51;;;;;;;1999.90;999.90;;;;;;;1.17;69.16;99344.28;15705774;28;20432;-64
2022/01/09 01:52:29;;;;;;;1999.90;999.90;;;;;;;1.06;69.18;99330.75;15710302;28;20063;-64
2022/01/09 02:00:05;;;;;;;1999.90;999.90;;;;;;;1.10;69.75;99322.69;15729198;28;20707;-64
2022/01/09 02:07:38;;;;;;;1999.90;999.90;;;;;;;0.89;70.15;99316.78;15727826;28;20091;-64
2022/01/09 02:15:31;;;;;;;1999.90;999.90;;;;;;;1.00;70.13;99301.72;15733086;28;20036;-64
2022/01/09 02:23:07;;;;;;;1999.90;999.90;;;;;;;1.13;70.26;99292.66;15703780;28;20140;-63
2022/01/09 02:30:41;;;;;;;1999.90;999.90;;;;;;;0.90;70.03;99290.13;15703590;28;20453;-64
2022/01/09 02:38:15;;;;;;;1999.90;999.90;;;;;;;1.09;69.76;99274.38;15725103;28;20415;-64
2022/01/09 02:45:53;;;;;;;1999.90;999.90;;;;;;;0.91;70.85;99256.84;15690114;28;20048;-64
2022/01/09 02:53:30;;;;;;;1999.90;999.90;;;;;;;1.11;70.36;99241.91;15744185;28;20028;-64
2022/01/09 03:01:03;;;;;;;1999.90;999.90;;;;;;;0.93;69.97;99242.81;15709895;28;20135;-63
2022/01/09 03:08:38;;;;;;;1999.90;999.90;;;;;;;0.95;70.36;99226.88;15725506;28;20115;-64
2022/01/09 03:16:11;;;;;;;1999.90;999.90;;;;;;;0.80;71.18;99217.00;15727282;28;20037;-63
2022/01/09 03:23:45;;;;;;;1999.90;999.90;;;;;;;0.92;71.03;99221.97;15708189;28;20099;-65
2022/01/09 03:31:20;;;;;;;1999.90;999.90;;;;;;;1.00;70.22;99216.56;15748446;28;20037;-64
2022/01/09 03:38:56;;;;;;;1999.90;999.90;;;;;;;0.92;70.48;99211.78;15725141;28;20053;-64
2022/01/09 03:46:28;;;;;;;1999.90;999.90;;;;;;;0.99;70.10;99214.94;15728694;28;20053;-64
2022/01/09 03:54:04;;;;;;;1999.90;999.90;;;;;;;1.24;69.55;99193.53;15708680;28;20571;-64
2022/01/09 04:01:36;;;;;;;1999.90;999.90;;;;;;;1.18;69.74;99194.78;15744493;28;20049;-65
2022/01/09 04:09:18;;;;;;;1999.90;999.90;;;;;;;1.21;69.79;99185.94;15688708;28;20041;-64
2022/01/09 04:16:51;;;;;;;1999.90;999.90;;;;;;;0.86;70.81;99185.56;15695757;28;20493;-64
2022/01/09 04:24:25;;;;;;;1999.90;999.90;;;;;;;0.89;71.15;99168.47;15723208;28;20037;-65
2022/01/09 04:31:58;;;;;;;1999.90;999.90;;;;;;;0.93;71.02;99168.66;15714681;28;20045;-65
2022/01/09 04:39:32;;;;;;;1999.90;999.90;;;;;;;1.35;69.93;99148.22;15737260;28;20071;-65
2022/01/09 04:47:10;;;;;;;1999.90;999.90;;;;;;;1.02;70.81;99150.34;15729324;28;20525;-64
2022/01/09 04:54:45;;;;;;;1999.90;999.90;;;;;;;1.14;70.32;99142.38;15715461;28;20075;-65
2022/01/09 05:02:18;;;;;;;1999.90;999.90;;;;;;;1.15;69.46;99147.59;15739599;28;20489;-65
2022/01/09 05:09:53;;;;;;;1999.90;999.90;;;;;;;1.43;69.02;99142.00;15742262;28;20041;-64
2022/01/09 05:17:27;;;;;;;1999.90;999.90;;;;;;;1.58;68.59;99141.66;15710961;28;20051;-64
2022/01/09 05:25:02;;;;;;;1999.90;999.90;;;;;;;1.79;68.36;99155.72;15718388;28;20076;-65
2022/01/09 05:32:35;;;;;;;1999.90;999.90;;;;;;;1.61;68.60;99146.53;15737217;28;20589;-63
2022/01/09 05:40:13;;;;;;;1999.90;999.90;;;;;;;1.64;69.40;99142.31;15731669;28;20056;-64
2022/01/09 05:47:49;;;;;;;1999.90;999.90;;;;;;;1.65;68.96;99146.69;15707985;28;20075;-64
2022/01/09 05:55:23;;;;;;;1999.90;999.90;;;;;;;1.84;68.23;99146.50;15705643;28;20036;-64
2022/01/09 06:02:56;;;;;;;1999.90;999.90;;;;;;;1.90;68.52;99150.78;15714917;28;20037;-65
2022/01/09 06:10:30;;;;;;;1999.90;999.90;;;;;;;2.12;68.30;99136.19;15745873;28;20048;-65
2022/01/09 06:18:03;;;;;;;1999.90;999.90;;;;;;;1.92;68.83;99149.31;15699398;28;20133;-65
2022/01/09 06:25:37;;;;;;;1999.90;999.90;;;;;;;2.08;67.92;99151.69;15728395;28;20452;-65
2022/01/09 06:33:11;;;;;;;1999.90;999.90;;;;;;;2.25;68.16;99144.34;15715341;28;20399;-65
2022/01/09 06:40:45;;;;;;;1999.90;999.90;;;;;;;2.04;67.73;99143.25;15741485;28;20055;-65
2022/01/09 06:48:18;;;;;;;1999.90;999.90;;;;;;;2.02;67.86;99145.50;15711235;28;20049;-64
2022/01/09 06:55:52;;;;;;;1999.90;999.90;;;;;;;2.36;67.37;99142.13;15729015;28;20044;-64
2022/01/09 07:03:25;;;;;;;1999.90;999.90;;;;;;;2.42;66.47;99138.13;15726927;28;20052;-64
2022/01/09 07:10:59;;;;;;;1999.90;999.90;;;;;;;2.20;67.24;99132.66;15726534;28;20048;-63
2022/01/09 07:18:31;;;;;;;1999.90;999.90;;;;;;;2.21;66.30;99139.78;15704619;28;20158;-63
2022/01/09 07:26:06;;;;;;;1999.90;999.90;;;;;;;2.30;67.10;99140.66;15747228;28;20066;-63
2022/01/09 07:33:38;;;;;;;1999.90;999.90;;;;;;;2.41;66.35;99152.19;15745582;28;20647;-63
2022/01/09 07:41:14;;;;;;;1999.90;999.90;;;;;;;2.50;66.04;99145.59;15714160;28;20049;-63
2022/01/09 07:48:47;;;;;;;1999.90;999.90;;;;;;;2.59;65.86;99151.13;15723119;28;20083;-65
2022/01/09 07:56:21;;;;;;;1999.90;999.90;;;;;;;2.58;65.71;99153.06;15734375;28;20386;-64
2022/01/09 08:03:54;;;;;;;1999.90;999.90;;;;;;;2.58;65.40;99157.75;15733291;28;20055;-65
2022/01/09 08:11:31;;;;;;;1999.90;999.90;;;;;;;3.06;64.25;99156.94;15714028;28;20079;-65
2022/01/09 08:19:04;;;;;;;1999.90;999.90;;;;;;;2.49;65.84;99146.72;15685633;28;20041;-65
2022/01/09 08:26:38;;;;;;;1999.90;999.90;;;;;;;2.84;65.18;99144.09;15712912;28;20045;-66
2022/01/09 08:34:11;;;;;;;1999.90;999.90;;;;;;;2.69;65.24;99147.28;15688665;28;20037;-65
2022/01/09 08:41:45;;;;;;;1999.90;999.90;;;;;;;2.62;65.25;99152.44;15724654;28;20048;-65
2022/01/09 08:49:17;;;;;;;1999.90;999.90;;;;;;;2.93;64.34;99147.69;15701573;28;20403;-64
2022/01/09 08:56:51;;;;;;;1999.90;999.90;;;;;;;3.21;64.07;99156.47;15732872;28;20045;-62
2022/01/09 09:04:25;;;;;;;1999.90;999.90;;;;;;;3.17;63.89;99152.75;15720736;28;20039;-63
2022/01/09 09:11:59;;;;;;;1999.90;999.90;;;;;;;3.31;62.97;99169.94;15709840;28;20048;-64
2022/01/09 09:19:32;;;;;;;1999.90;999.90;;;;;;;3.10;63.57;99178.03;15737746;28;20053;-64
2022/01/09 09:27:07;;;;;;;1999.90;999.90;;;;;;;3.45;62.08;99178.91;15694177;28;20041;-64
2022/01/09 09:34:41;;;;;;;1999.90;999.90;;;;;;;3.28;62.79;99186.34;15714970;28;20481;-63
2022/01/09 09:42:15;;;;;;;1999.90;999.90;;;;;;;3.71;62.11;99187.19;15709863;28;20052;-64
2022/01/09 09:49:48;;;;;;;1999.90;999.90;;;;;;;3.58;62.89;99195.63;15735318;28;20675;-65
2022/01/09 09:57:23;;;;;;;1999.90;999.90;;;;;;;3.85;62.52;99183.44;15720237;28;20476;-63
2022/01/09 10:05:01;;;;;;;1999.90;999.90;;;;;;;4.29;60.98;99179.50;15701306;28;20163;-64
2022/01/09 10:12:38;;;;;;;1999.90;999.90;;;;;;;4.28;61.22;99188.91;15725151;28;20073;-65
2022/01/09 10:20:13;;;;;;;1999.90;999.90;;;;;;;4.27;62.06;99192.78;15715491;28;20135;-64
2022/01/09 10:27:49;;;;;;;1999.90;999.90;;;;;;;4.58;61.13;99190.59;15717679;28;20090;-71
2022/01/09 10:35:22;;;;;;;1999.90;999.90;;;;;;;4.75;60.13;99195.25;15702650;28;20060;-61
2022/01/09 10:43:05;;;;;;;1999.90;999.90;;;;;;;5.16;59.60;99204.84;15692508;28;20095;-62
2022/01/09 10:50:40;;;;;;;1999.90;999.90;;;;;;;5.45;59.00;99188.22;15698869;28;20036;-64
2022/01/09 10:58:19;;;;;;;1999.90;999.90;;;;;;;5.01;61.28;99197.13;15712410;28;20041;-62
2022/01/09 11:05:52;;;;;;;1999.90;999.90;;;;;;;5.60;59.07;99208.13;15721724;28;20074;-64
2022/01/09 11:13:27;;;;;;;1999.90;999.90;;;;;;;5.44;59.52;99211.50;15705696;28;20048;-65
2022/01/09 11:21:01;;;;;;;1999.90;999.90;;;;;;;6.03;58.14;99210.59;15706829;28;20071;-64
2022/01/09 11:28:38;;;;;;;1999.90;999.90;;;;;;;5.88;58.71;99228.59;15709691;28;20102;-65
2022/01/09 11:36:19;;;;;;;1999.90;999.90;;;;;;;5.76;59.24;99237.66;15705658;28;20413;-64
2022/01/09 11:43:58;;;;;;;1999.90;999.90;;;;;;;5.75;59.63;99241.56;15707456;28;20143;-64
2022/01/09 11:51:33;;;;;;;1999.90;999.90;;;;;;;5.62;59.45;99234.31;15724562;28;20403;-64
2022/01/09 11:59:26;;;;;;;1999.90;999.90;;;;;;;5.68;60.81;99230.22;15716665;28;20040;-65
2022/01/09 12:07:00;;;;;;;1999.90;999.90;;;;;;;5.96;59.87;99238.03;15712651;28;20048;-64
2022/01/09 12:15:01;;;;;;;1999.90;999.90;;;;;;;5.93;60.27;99247.78;15718849;28;20033;-64
2022/01/09 12:23:04;;;;;;;1999.90;999.90;;;;;;;5.59;61.77;99251.59;15724952;28;20066;-64
2022/01/09 12:30:54;;;;;;;1999.90;999.90;;;;;;;5.64;61.45;99262.47;15712708;28;20052;-63
2022/01/09 12:38:37;;;;;;;1999.90;999.90;;;;;;;5.80;61.26;99274.56;15708122;28;20099;-63
2022/01/09 12:46:13;;;;;;;1999.90;999.90;;;;;;;5.76;62.21;99281.94;15687239;28;20442;-62
2022/01/09 12:53:49;;;;;;;1999.90;999.90;;;;;;;6.08;61.31;99287.94;15715882;28;20032;-63
2022/01/09 13:01:25;;;;;;;1999.90;999.90;;;;;;;5.79;62.31;99289.56;15720158;28;20048;-63
2022/01/09 13:09:01;;;;;;;1999.90;999.90;;;;;;;6.29;60.97;99304.53;15696495;28;20494;-62
2022/01/09 13:16:36;;;;;;;1999.90;999.90;;;;;;;6.17;61.42;99305.28;15698008;28;20036;-63
2022/01/09 13:24:11;;;;;;;1999.90;999.90;;;;;;;6.66;61.80;99313.81;15704294;28;20079;-63
2022/01/09 13:31:47;;;;;;;1999.90;999.90;;;;;;;6.47;61.55;99335.69;15698393;28;20094;-66
2022/01/09 13:39:25;;;;;;;1999.90;999.90;;;;;;;6.38;61.91;99343.25;15728915;28;20070;-63
2022/01/09 13:47:06;;;;;;;1999.90;999.90;;;;;;;6.59;61.07;99355.13;15702397;28;20053;-63
2022/01/09 13:54:40;;;;;;;1999.90;999.90;;;;;;;6.70;61.11;99347.22;15745082;28;20041;-65
2022/01/09 14:02:16;;;;;;;1999.90;999.90;;;;;;;6.86;60.35;99371.19;15726069;28;20053;-63
2022/01/09 14:09:54;;;;;;;1999.90;999.90;;;;;;;6.50;61.63;99371.03;15706429;28;20049;-68
2022/01/09 14:17:30;;;;;;;1999.90;999.90;;;;;;;6.68;61.73;99385.56;15744646;28;20048;-67
2022/01/09 14:25:06;;;;;;;1999.90;999.90;;;;;;;6.66;62.37;99389.47;15746006;28;20049;-68
2022/01/09 14:32:40;;;;;;;1999.90;999.90;;;;;;;6.53;62.69;99395.28;15728433;28;20041;-67
2022/01/09 14:40:15;;;;;;;1999.90;999.90;;;;;;;6.77;61.85;99405.69;15746351;28;20059;-67
2022/01/09 14:47:50;;;;;;;1999.90;999.90;;;;;;;6.79;62.54;99417.25;15747263;28;20048;-68
2022/01/09 14:55:23;;;;;;;1999.90;999.90;;;;;;;6.59;62.92;99438.28;15746790;28;20097;-68
2022/01/09 15:02:59;;;;;;;1999.90;999.90;;;;;;;6.85;62.75;99444.41;15728764;28;20094;-68
2022/01/09 15:10:33;;;;;;;1999.90;999.90;;;;;;;6.69;63.18;99446.19;15732007;28;20131;-66
2022/01/09 15:18:08;;;;;;;1999.90;999.90;;;;;;;6.70;63.27;99469.19;15747188;28;20044;-66
2022/01/09 15:25:44;;;;;;;1999.90;999.90;;;;;;;6.75;63.48;99482.84;15728156;28;20048;-67
2022/01/09 15:33:18;;;;;;;1999.90;999.90;;;;;;;6.64;64.01;99493.50;15744098;28;20131;-66
2022/01/09 15:40:51;;;;;;;1999.90;999.90;;;;;;;6.62;64.29;99491.06;15715330;28;20052;-66
2022/01/09 15:48:25;;;;;;;1999.90;999.90;;;;;;;6.79;63.54;99512.34;15692260;28;20119;-67
2022/01/09 15:55:58;;;;;;;1999.90;999.90;;;;;;;6.59;63.95;99526.97;15737537;28;20044;-67
2022/01/09 16:03:33;;;;;;;1999.90;999.90;;;;;;;6.32;65.91;99536.56;15740884;28;20040;-67
2022/01/09 16:11:06;;;;;;;1999.90;999.90;;;;;;;6.42;65.91;99549.22;15740786;28;20056;-67
2022/01/09 16:18:42;;;;;;;1999.90;999.90;;;;;;;6.49;65.78;99566.16;15742061;28;20048;-67
2022/01/09 16:26:16;;;;;;;1999.90;999.90;;;;;;;6.66;65.89;99571.59;15740537;28;20036;-67
2022/01/09 16:33:51;;;;;;;1999.90;999.90;;;;;;;6.77;65.26;99581.16;15740697;28;20037;-67
2022/01/09 16:41:23;;;;;;;1999.90;999.90;;;;;;;6.63;66.34;99597.22;15741060;28;20051;-68
2022/01/09 16:48:59;;;;;;;1999.90;999.90;;;;;;;6.57;67.83;99613.25;15741380;28;20056;-67
2022/01/09 16:56:32;;;;;;;1999.90;999.90;;;;;;;6.56;68.31;99624.63;15739450;28;20053;-68
2022/01/09 17:04:06;;;;;;;1999.90;999.90;;;;;;;6.53;69.01;99648.28;15722069;28;20049;-67
2022/01/09 17:11:39;;;;;;;1999.90;999.90;;;;;;;6.47;69.66;99652.41;15747519;28;20036;-68
2022/01/09 17:19:13;;;;;;;1999.90;999.90;;;;;;;6.55;69.94;99656.25;15752409;28;20056;-66
2022/01/09 17:26:46;;;;;;;1999.90;999.90;;;;;;;6.66;70.66;99679.69;15733774;28;20090;-66
2022/01/09 17:34:20;;;;;;;1999.90;999.90;;;;;;;6.58;71.78;99688.88;15734135;28;20055;-68
2022/01/09 17:41:53;;;;;;;1999.90;999.90;;;;;;;6.65;71.98;99695.53;15735621;28;20044;-66
2022/01/09 17:49:27;;;;;;;1999.90;999.90;;;;;;;6.68;72.15;99712.66;15749584;28;20059;-67
2022/01/09 17:57:02;;;;;;;1999.90;999.90;;;;;;;6.38;73.19;99722.84;15723464;28;20090;-68
2022/01/09 18:04:39;;;;;;;1999.90;999.90;;;;;;;6.10;74.85;99748.13;15722181;28;20039;-70
2022/01/09 18:12:12;;;;;;;1999.90;999.90;;;;;;;5.97;75.57;99766.53;15683970;28;20094;-69
2022/01/09 18:19:46;;;;;;;1999.90;999.90;;;;;;;6.16;75.68;99784.78;15733716;28;20451;-69
2022/01/09 18:27:19;;;;;;;1999.90;999.90;;;;;;;6.17;75.31;99798.31;15709637;28;20044;-65
2022/01/09 18:34:53;;;;;;;1999.90;999.90;;;;;;;6.35;75.07;99810.19;15721337;28;20037;-66
2022/01/09 18:42:26;;;;;;;1999.90;999.90;;;;;;;6.23;74.50;99812.81;15730517;28;20048;-64
2022/01/09 18:50:00;;;;;;;1999.90;999.90;;;;;;;6.05;75.27;99828.63;15721276;28;20516;-63
2022/01/09 18:57:33;;;;;;;1999.90;999.90;;;;;;;5.95;75.55;99834.47;15744857;28;20505;-63
2022/01/09 19:05:09;;;;;;;1999.90;999.90;;;;;;;5.84;75.65;99844.19;15712620;28;20124;-64
2022/01/09 19:12:42;;;;;;;1999.90;999.90;;;;;;;5.89;75.91;99860.63;15716964;28;20051;-67
2022/01/09 19:20:17;;;;;;;1999.90;999.90;;;;;;;5.86;76.18;99864.06;15684287;28;20437;-66
2022/01/09 19:27:50;;;;;;;1999.90;999.90;;;;;;;5.93;75.64;99872.72;15713304;28;20041;-69
2022/01/09 19:35:24;;;;;;;1999.90;999.90;;;;;;;6.08;75.14;99891.66;15708552;28;20025;-69
2022/01/09 19:42:57;;;;;;;1999.90;999.90;;;;;;;5.77;76.18;99913.88;15712823;28;20057;-67
2022/01/09 19:50:33;;;;;;;1999.90;999.90;;;;;;;5.65;76.82;99920.00;15720909;28;20044;-67
2022/01/09 19:58:05;;;;;;;1999.90;999.90;;;;;;;5.71;76.78;99934.50;15705184;28;20048;-64
2022/01/09 20:05:40;;;;;;;1999.90;999.90;;;;;;;5.57;77.57;99944.88;15722684;28;20043;-66
2022/01/09 20:13:15;;;;;;;1999.90;999.90;;;;;;;5.92;76.03;99962.47;15723348;28;20102;-65
2022/01/09 20:20:51;;;;;;;1999.90;999.90;;;;;;;5.82;76.46;99965.50;15705278;28;20452;-63
2022/01/09 20:28:24;;;;;;;1999.90;999.90;;;;;;;5.99;76.39;99982.22;15683024;28;20127;-66
2022/01/09 20:35:58;;;;;;;1999.90;999.90;;;;;;;6.00;76.08;100000.47;15707414;28;20087;-65
2022/01/09 20:43:32;;;;;;;1999.90;999.90;;;;;;;6.24;75.97;99997.28;15695065;28;20056;-66
2022/01/09 20:51:07;;;;;;;1999.90;999.90;;;;;;;6.04;76.16;100015.28;15695455;28;20063;-66
2022/01/09 20:58:41;;;;;;;1999.90;999.90;;;;;;;6.05;76.07;100025.25;15709970;28;20116;-65
2022/01/09 21:06:22;;;;;;;1999.90;999.90;;;;;;;6.12;76.33;100027.53;15672568;28;20037;-66
2022/01/09 21:13:56;;;;;;;1999.90;999.90;;;;;;;6.21;76.06;100045.84;15694991;28;20039;-64
2022/01/09 21:21:32;;;;;;;1999.90;999.90;;;;;;;6.14;76.69;100047.44;15726530;28;20041;-65
2022/01/09 21:29:15;;;;;;;1999.90;999.90;;;;;;;6.13;76.86;100056.88;15712550;28;20097;-66
2022/01/09 21:36:51;;;;;;;1999.90;999.90;;;;;;;6.18;76.92;100074.19;15701066;28;20040;-63
2022/01/09 21:44:24;;;;;;;1999.90;999.90;;;;;;;6.45;75.85;100092.53;15714379;28;20052;-62
2022/01/09 21:52:00;;;;;;;1999.90;999.90;;;;;;;6.32;75.89;100096.25;15732155;28;20065;-64
2022/01/09 21:59:34;;;;;;;1999.90;999.90;;;;;;;6.38;77.10;100110.78;15735970;28;20048;-68
2022/01/09 22:07:08;;;;;;;1999.90;999.90;;;;;;;6.55;76.87;100117.19;15727630;28;20068;-64
2022/01/09 22:14:41;;;;;;;1999.90;999.90;;;;;;;6.55;76.99;100138.56;15725833;28;20045;-67
2022/01/09 22:22:15;;;;;;;1999.90;999.90;;;;;;;6.70;76.72;100149.22;15744774;28;20139;-61
2022/01/09 22:29:53;;;;;;;1999.90;999.90;;;;;;;6.63;77.49;100158.00;15741501;28;20064;-64
2022/01/09 22:37:27;;;;;;;1999.90;999.90;;;;;;;6.70;77.56;100162.28;15707315;28;20522;-64
2022/01/09 22:45:00;;;;;;;1999.90;999.90;;;;;;;6.70;77.99;100182.50;15728960;28;20059;-63
2022/01/09 22:52:36;;;;;;;1999.90;999.90;;;;;;;6.79;77.85;100177.81;15739807;28;20190;-66
2022/01/09 23:00:15;;;;;;;1999.90;999.90;;;;;;;6.77;77.57;100199.47;15732091;28;20407;-65
2022/01/09 23:07:49;;;;;;;1999.90;999.90;;;;;;;6.74;77.43;100191.78;15712615;28;20033;-65
2022/01/09 23:15:22;;;;;;;1999.90;999.90;;;;;;;6.56;78.54;100207.53;15702211;28;20045;-65
2022/01/09 23:22:56;;;;;;;1999.90;999.90;;;;;;;6.62;78.52;100233.16;15706880;28;20137;-65
2022/01/09 23:30:30;;;;;;;1999.90;999.90;;;;;;;6.33;79.19;100245.56;15722970;28;20037;-64
2022/01/09 23:38:04;;;;;;;1999.90;999.90;;;;;;;6.22;81.31;100254.44;15685619;28;20144;-65
2022/01/09 23:45:43;;;;;;;1999.90;999.90;;;;;;;6.48;79.88;100266.53;15730521;28;20484;-66
2022/01/09 23:53:18;;;;;;;1999.90;999.90;;;;;;;6.59;78.99;100280.94;15705885;28;20080;-66
